sensor_id;sensor_type;location;lat;lon;timestamp;P1;durP1;ratioP1;P2;durP2;ratioP2
5620;SDS011;2832;50.864;12.186;2023-12-04T00:01:27;1.10;;;1.10;;
5620;SDS011;2832;50.864;12.186;2023-12-04T00:03:58;1.10;;;1.10;;
5620;SDS011;2832;50.864;12.186;2023-12-04T00:06:26;1.13;;;1.13;;
5620;SDS011;2832;50.864;12.186;2023-12-04T00:08:54;1.10;;;1.10;;
5620;SDS011;2832;50.864;12.186;2023-12-04T00:11:21;1.10;;;1.10;;
5620;SDS011;2832;50.864;12.186;2023-12-04T00:13:51;1.00;;;1.00;;
5620;SDS011;2832;50.864;12.186;2023-12-04T00:16:19;1.10;;;1.10;;
5620;SDS011;2832;50.864;12.186;2023-12-04T00:18:47;1.10;;;1.10;;
5620;SDS011;2832;50.864;12.186;2023-12-04T00:21:16;1.10;;;1.10;;
5620;SDS011;2832;50.864;12.186;2023-12-04T00:23:44;1.10;;;1.10;;
5620;SDS011;2832;50.864;12.186;2023-12-04T00:26:12;1.10;;;1.10;;
5620;SDS011;2832;50.864;12.186;2023-12-04T00:28:41;1.10;;;1.10;;
5620;SDS011;2832;50.864;12.186;2023-12-04T00:31:09;1.10;;;1.10;;
5620;SDS011;2832;50.864;12.186;2023-12-04T00:33:37;1.10;;;1.10;;
5620;SDS011;2832;50.864;12.186;2023-12-04T00:36:08;1.20;;;1.20;;
5620;SDS011;2832;50.864;12.186;2023-12-04T00:38:38;1.10;;;1.10;;
5620;SDS011;2832;50.864;12.186;2023-12-04T00:41:06;1.10;;;1.10;;
5620;SDS011;2832;50.864;12.186;2023-12-04T00:43:34;1.10;;;1.10;;
5620;SDS011;2832;50.864;12.186;2023-12-04T00:46:03;1.20;;;1.20;;
5620;SDS011;2832;50.864;12.186;2023-12-04T00:48:32;1.07;;;1.07;;
5620;SDS011;2832;50.864;12.186;2023-12-04T00:51:00;1.10;;;1.10;;
5620;SDS011;2832;50.864;12.186;2023-12-04T00:53:27;1.10;;;1.10;;
5620;SDS011;2832;50.864;12.186;2023-12-04T00:55:57;1.10;;;1.10;;
5620;SDS011;2832;50.864;12.186;2023-12-04T00:58:26;1.10;;;1.10;;
5620;SDS011;2832;50.864;12.186;2023-12-04T01:00:54;1.10;;;1.10;;
5620;SDS011;2832;50.864;12.186;2023-12-04T01:03:23;1.10;;;1.10;;
5620;SDS011;2832;50.864;12.186;2023-12-04T01:05:52;1.10;;;1.10;;
5620;SDS011;2832;50.864;12.186;2023-12-04T01:08:20;1.03;;;1.03;;
5620;SDS011;2832;50.864;12.186;2023-12-04T01:10:48;1.20;;;1.20;;
5620;SDS011;2832;50.864;12.186;2023-12-04T01:13:17;1.10;;;1.10;;
5620;SDS011;2832;50.864;12.186;2023-12-04T01:15:45;1.10;;;1.10;;
5620;SDS011;2832;50.864;12.186;2023-12-04T01:18:14;1.00;;;1.00;;
5620;SDS011;2832;50.864;12.186;2023-12-04T01:20:46;1.10;;;1.10;;
5620;SDS011;2832;50.864;12.186;2023-12-04T01:23:14;1.10;;;1.10;;
5620;SDS011;2832;50.864;12.186;2023-12-04T01:25:45;1.17;;;1.17;;
5620;SDS011;2832;50.864;12.186;2023-12-04T01:28:19;1.20;;;1.20;;
5620;SDS011;2832;50.864;12.186;2023-12-04T01:30:48;1.10;;;1.10;;
5620;SDS011;2832;50.864;12.186;2023-12-04T01:33:17;1.20;;;1.20;;
5620;SDS011;2832;50.864;12.186;2023-12-04T01:35:44;1.10;;;1.10;;
5620;SDS011;2832;50.864;12.186;2023-12-04T01:38:13;1.10;;;1.10;;
5620;SDS011;2832;50.864;12.186;2023-12-04T01:40:43;1.10;;;1.10;;
5620;SDS011;2832;50.864;12.186;2023-12-04T01:43:11;1.10;;;1.10;;
5620;SDS011;2832;50.864;12.186;2023-12-04T01:45:40;1.10;;;1.10;;
5620;SDS011;2832;50.864;12.186;2023-12-04T01:48:11;1.10;;;1.10;;
5620;SDS011;2832;50.864;12.186;2023-12-04T01:50:41;1.10;;;1.10;;
5620;SDS011;2832;50.864;12.186;2023-12-04T01:53:11;1.10;;;1.10;;
5620;SDS011;2832;50.864;12.186;2023-12-04T01:55:38;1.10;;;1.10;;
5620;SDS011;2832;50.864;12.186;2023-12-04T01:58:10;1.10;;;1.10;;
5620;SDS011;2832;50.864;12.186;2023-12-04T02:00:40;1.10;;;1.10;;
5620;SDS011;2832;50.864;12.186;2023-12-04T02:03:08;1.10;;;1.10;;
5620;SDS011;2832;50.864;12.186;2023-12-04T02:05:43;1.07;;;1.07;;
5620;SDS011;2832;50.864;12.186;2023-12-04T02:08:11;1.10;;;1.10;;
5620;SDS011;2832;50.864;12.186;2023-12-04T02:10:39;1.10;;;1.10;;
5620;SDS011;2832;50.864;12.186;2023-12-04T02:13:07;1.10;;;1.10;;
5620;SDS011;2832;50.864;12.186;2023-12-04T02:15:35;1.10;;;1.10;;
5620;SDS011;2832;50.864;12.186;2023-12-04T02:18:05;1.20;;;1.20;;
5620;SDS011;2832;50.864;12.186;2023-12-04T02:20:33;1.10;;;1.10;;
5620;SDS011;2832;50.864;12.186;2023-12-04T02:23:01;1.10;;;1.10;;
5620;SDS011;2832;50.864;12.186;2023-12-04T02:25:31;1.00;;;1.00;;
5620;SDS011;2832;50.864;12.186;2023-12-04T02:27:59;1.00;;;1.00;;
5620;SDS011;2832;50.864;12.186;2023-12-04T02:30:32;1.00;;;1.00;;
5620;SDS011;2832;50.864;12.186;2023-12-04T02:33:04;1.00;;;1.00;;
5620;SDS011;2832;50.864;12.186;2023-12-04T02:35:35;1.10;;;1.10;;
5620;SDS011;2832;50.864;12.186;2023-12-04T02:38:06;1.10;;;1.10;;
5620;SDS011;2832;50.864;12.186;2023-12-04T02:40:35;1.10;;;1.10;;
5620;SDS011;2832;50.864;12.186;2023-12-04T02:43:03;1.10;;;1.10;;
5620;SDS011;2832;50.864;12.186;2023-12-04T02:45:31;1.20;;;1.20;;
5620;SDS011;2832;50.864;12.186;2023-12-04T02:47:58;1.10;;;1.10;;
5620;SDS011;2832;50.864;12.186;2023-12-04T02:50:26;1.10;;;1.10;;
5620;SDS011;2832;50.864;12.186;2023-12-04T02:52:56;1.10;;;1.10;;
5620;SDS011;2832;50.864;12.186;2023-12-04T02:55:24;1.10;;;1.10;;
5620;SDS011;2832;50.864;12.186;2023-12-04T02:57:53;1.00;;;1.00;;
5620;SDS011;2832;50.864;12.186;2023-12-04T03:00:21;1.10;;;1.10;;
5620;SDS011;2832;50.864;12.186;2023-12-04T03:02:48;1.10;;;1.10;;
5620;SDS011;2832;50.864;12.186;2023-12-04T03:05:19;1.10;;;1.10;;
5620;SDS011;2832;50.864;12.186;2023-12-04T03:07:48;1.00;;;1.00;;
5620;SDS011;2832;50.864;12.186;2023-12-04T03:10:16;1.10;;;1.10;;
5620;SDS011;2832;50.864;12.186;2023-12-04T03:12:46;1.10;;;1.10;;
5620;SDS011;2832;50.864;12.186;2023-12-04T03:15:15;1.13;;;1.13;;
5620;SDS011;2832;50.864;12.186;2023-12-04T03:17:43;1.10;;;1.10;;
5620;SDS011;2832;50.864;12.186;2023-12-04T03:20:11;1.10;;;1.10;;
5620;SDS011;2832;50.864;12.186;2023-12-04T03:22:39;1.10;;;1.10;;
5620;SDS011;2832;50.864;12.186;2023-12-04T03:25:09;1.10;;;1.10;;
5620;SDS011;2832;50.864;12.186;2023-12-04T03:27:37;1.10;;;1.10;;
5620;SDS011;2832;50.864;12.186;2023-12-04T03:30:05;1.10;;;1.10;;
5620;SDS011;2832;50.864;12.186;2023-12-04T03:32:36;1.10;;;1.10;;
5620;SDS011;2832;50.864;12.186;2023-12-04T03:35:06;1.00;;;1.00;;
5620;SDS011;2832;50.864;12.186;2023-12-04T03:37:35;1.10;;;1.10;;
5620;SDS011;2832;50.864;12.186;2023-12-04T03:40:04;1.10;;;1.10;;
5620;SDS011;2832;50.864;12.186;2023-12-04T03:42:36;1.10;;;1.10;;
5620;SDS011;2832;50.864;12.186;2023-12-04T03:45:06;1.10;;;1.10;;
5620;SDS011;2832;50.864;12.186;2023-12-04T03:47:39;1.10;;;1.10;;
5620;SDS011;2832;50.864;12.186;2023-12-04T03:50:07;1.10;;;1.10;;
5620;SDS011;2832;50.864;12.186;2023-12-04T03:52:35;1.10;;;1.10;;
5620;SDS011;2832;50.864;12.186;2023-12-04T03:55:03;1.00;;;1.00;;
5620;SDS011;2832;50.864;12.186;2023-12-04T03:57:31;1.03;;;1.03;;
5620;SDS011;2832;50.864;12.186;2023-12-04T03:59:59;1.00;;;1.00;;
5620;SDS011;2832;50.864;12.186;2023-12-04T04:02:29;1.10;;;1.10;;
5620;SDS011;2832;50.864;12.186;2023-12-04T04:05:00;1.10;;;1.10;;
5620;SDS011;2832;50.864;12.186;2023-12-04T04:07:28;1.10;;;1.10;;
5620;SDS011;2832;50.864;12.186;2023-12-04T04:09:57;1.10;;;1.10;;
5620;SDS011;2832;50.864;12.186;2023-12-04T04:12:24;1.10;;;1.10;;
5620;SDS011;2832;50.864;12.186;2023-12-04T04:14:52;1.10;;;1.10;;
5620;SDS011;2832;50.864;12.186;2023-12-04T04:17:20;1.00;;;1.00;;
5620;SDS011;2832;50.864;12.186;2023-12-04T04:19:51;1.10;;;1.10;;
5620;SDS011;2832;50.864;12.186;2023-12-04T04:22:20;1.00;;;1.00;;
5620;SDS011;2832;50.864;12.186;2023-12-04T04:24:51;1.10;;;1.10;;
5620;SDS011;2832;50.864;12.186;2023-12-04T04:27:21;1.10;;;1.10;;
5620;SDS011;2832;50.864;12.186;2023-12-04T04:29:48;1.00;;;1.00;;
5620;SDS011;2832;50.864;12.186;2023-12-04T04:32:17;1.00;;;1.00;;
5620;SDS011;2832;50.864;12.186;2023-12-04T04:34:45;1.00;;;1.00;;
5620;SDS011;2832;50.864;12.186;2023-12-04T04:37:14;1.00;;;1.00;;
5620;SDS011;2832;50.864;12.186;2023-12-04T04:39:43;1.10;;;1.10;;
5620;SDS011;2832;50.864;12.186;2023-12-04T04:42:12;1.10;;;1.10;;
5620;SDS011;2832;50.864;12.186;2023-12-04T04:44:39;1.00;;;1.00;;
5620;SDS011;2832;50.864;12.186;2023-12-04T04:47:08;1.00;;;1.00;;
5620;SDS011;2832;50.864;12.186;2023-12-04T04:49:36;1.00;;;1.00;;
5620;SDS011;2832;50.864;12.186;2023-12-04T04:52:04;1.00;;;1.00;;
5620;SDS011;2832;50.864;12.186;2023-12-04T04:54:32;1.10;;;1.10;;
5620;SDS011;2832;50.864;12.186;2023-12-04T04:57:01;1.10;;;1.10;;
5620;SDS011;2832;50.864;12.186;2023-12-04T04:59:29;1.10;;;1.10;;
5620;SDS011;2832;50.864;12.186;2023-12-04T05:02:00;1.10;;;1.10;;
5620;SDS011;2832;50.864;12.186;2023-12-04T05:04:31;1.10;;;1.10;;
5620;SDS011;2832;50.864;12.186;2023-12-04T05:06:59;1.10;;;1.10;;
5620;SDS011;2832;50.864;12.186;2023-12-04T05:09:26;1.10;;;1.10;;
5620;SDS011;2832;50.864;12.186;2023-12-04T05:11:54;1.10;;;1.10;;
5620;SDS011;2832;50.864;12.186;2023-12-04T05:14:24;1.10;;;1.10;;
5620;SDS011;2832;50.864;12.186;2023-12-04T05:16:52;1.10;;;1.10;;
5620;SDS011;2832;50.864;12.186;2023-12-04T05:19:20;1.10;;;1.10;;
5620;SDS011;2832;50.864;12.186;2023-12-04T05:21:50;1.03;;;1.03;;
5620;SDS011;2832;50.864;12.186;2023-12-04T05:24:18;1.10;;;1.10;;
5620;SDS011;2832;50.864;12.186;2023-12-04T05:26:46;1.00;;;1.00;;
5620;SDS011;2832;50.864;12.186;2023-12-04T05:29:20;1.10;;;1.10;;
5620;SDS011;2832;50.864;12.186;2023-12-04T05:31:53;1.10;;;1.10;;
5620;SDS011;2832;50.864;12.186;2023-12-04T05:34:23;1.10;;;1.10;;
5620;SDS011;2832;50.864;12.186;2023-12-04T05:36:50;1.10;;;1.10;;
5620;SDS011;2832;50.864;12.186;2023-12-04T05:39:21;1.10;;;1.10;;
5620;SDS011;2832;50.864;12.186;2023-12-04T05:41:52;1.07;;;1.07;;
5620;SDS011;2832;50.864;12.186;2023-12-04T05:44:26;1.10;;;1.10;;
5620;SDS011;2832;50.864;12.186;2023-12-04T05:47:01;1.00;;;1.00;;
5620;SDS011;2832;50.864;12.186;2023-12-04T05:49:29;1.03;;;1.03;;
5620;SDS011;2832;50.864;12.186;2023-12-04T05:51:59;1.10;;;1.10;;
5620;SDS011;2832;50.864;12.186;2023-12-04T05:54:26;1.00;;;1.00;;
5620;SDS011;2832;50.864;12.186;2023-12-04T05:56:55;1.10;;;1.10;;
5620;SDS011;2832;50.864;12.186;2023-12-04T05:59:28;1.00;;;1.00;;
5620;SDS011;2832;50.864;12.186;2023-12-04T06:01:59;1.10;;;1.10;;
5620;SDS011;2832;50.864;12.186;2023-12-04T06:04:34;1.00;;;1.00;;
5620;SDS011;2832;50.864;12.186;2023-12-04T06:07:03;1.10;;;1.10;;
5620;SDS011;2832;50.864;12.186;2023-12-04T06:09:30;1.10;;;1.10;;
5620;SDS011;2832;50.864;12.186;2023-12-04T06:12:03;1.10;;;1.10;;
5620;SDS011;2832;50.864;12.186;2023-12-04T06:14:35;1.00;;;1.00;;
5620;SDS011;2832;50.864;12.186;2023-12-04T06:17:03;1.00;;;1.00;;
5620;SDS011;2832;50.864;12.186;2023-12-04T06:19:39;1.00;;;1.00;;
5620;SDS011;2832;50.864;12.186;2023-12-04T06:22:11;1.00;;;1.00;;
5620;SDS011;2832;50.864;12.186;2023-12-04T06:24:41;1.00;;;1.00;;
5620;SDS011;2832;50.864;12.186;2023-12-04T06:27:09;1.07;;;1.07;;
5620;SDS011;2832;50.864;12.186;2023-12-04T06:29:44;1.00;;;1.00;;
5620;SDS011;2832;50.864;12.186;2023-12-04T06:32:16;1.00;;;1.00;;
5620;SDS011;2832;50.864;12.186;2023-12-04T06:34:49;1.10;;;1.10;;
5620;SDS011;2832;50.864;12.186;2023-12-04T06:37:17;1.10;;;1.10;;
5620;SDS011;2832;50.864;12.186;2023-12-04T06:39:45;1.10;;;1.10;;
5620;SDS011;2832;50.864;12.186;2023-12-04T06:42:22;1.10;;;1.10;;
5620;SDS011;2832;50.864;12.186;2023-12-04T06:44:54;1.00;;;1.00;;
5620;SDS011;2832;50.864;12.186;2023-12-04T06:47:25;1.00;;;1.00;;
5620;SDS011;2832;50.864;12.186;2023-12-04T06:49:58;1.10;;;1.10;;
5620;SDS011;2832;50.864;12.186;2023-12-04T06:52:26;1.10;;;1.10;;
5620;SDS011;2832;50.864;12.186;2023-12-04T06:54:55;1.10;;;1.10;;
5620;SDS011;2832;50.864;12.186;2023-12-04T06:57:22;1.00;;;1.00;;
5620;SDS011;2832;50.864;12.186;2023-12-04T06:59:55;1.03;;;1.03;;
5620;SDS011;2832;50.864;12.186;2023-12-04T07:02:23;1.10;;;1.10;;
5620;SDS011;2832;50.864;12.186;2023-12-04T07:04:59;1.00;;;1.00;;
5620;SDS011;2832;50.864;12.186;2023-12-04T07:07:28;1.10;;;1.10;;
5620;SDS011;2832;50.864;12.186;2023-12-04T07:09:58;1.10;;;1.10;;
5620;SDS011;2832;50.864;12.186;2023-12-04T07:12:26;1.00;;;1.00;;
5620;SDS011;2832;50.864;12.186;2023-12-04T07:14:53;1.00;;;1.00;;
5620;SDS011;2832;50.864;12.186;2023-12-04T07:17:22;1.10;;;1.10;;
5620;SDS011;2832;50.864;12.186;2023-12-04T07:19:50;1.10;;;1.10;;
5620;SDS011;2832;50.864;12.186;2023-12-04T07:22:19;1.10;;;1.10;;
5620;SDS011;2832;50.864;12.186;2023-12-04T07:24:47;1.10;;;1.10;;
5620;SDS011;2832;50.864;12.186;2023-12-04T07:27:14;1.10;;;1.10;;
5620;SDS011;2832;50.864;12.186;2023-12-04T07:29:42;1.10;;;1.10;;
5620;SDS011;2832;50.864;12.186;2023-12-04T07:32:13;1.10;;;1.10;;
5620;SDS011;2832;50.864;12.186;2023-12-04T07:34:43;1.10;;;1.10;;
5620;SDS011;2832;50.864;12.186;2023-12-04T07:37:13;1.10;;;1.10;;
5620;SDS011;2832;50.864;12.186;2023-12-04T07:39:44;1.10;;;1.10;;
5620;SDS011;2832;50.864;12.186;2023-12-04T07:42:14;1.10;;;1.10;;
5620;SDS011;2832;50.864;12.186;2023-12-04T07:44:41;1.10;;;1.10;;
5620;SDS011;2832;50.864;12.186;2023-12-04T07:47:09;1.10;;;1.10;;
5620;SDS011;2832;50.864;12.186;2023-12-04T07:49:40;1.10;;;1.10;;
5620;SDS011;2832;50.864;12.186;2023-12-04T07:52:14;1.00;;;1.00;;
5620;SDS011;2832;50.864;12.186;2023-12-04T07:54:42;1.10;;;1.10;;
5620;SDS011;2832;50.864;12.186;2023-12-04T07:57:12;1.10;;;1.10;;
5620;SDS011;2832;50.864;12.186;2023-12-04T07:59:41;1.00;;;1.00;;
5620;SDS011;2832;50.864;12.186;2023-12-04T08:02:14;1.07;;;1.07;;
5620;SDS011;2832;50.864;12.186;2023-12-04T08:04:48;1.00;;;1.00;;
5620;SDS011;2832;50.864;12.186;2023-12-04T08:07:16;1.10;;;1.10;;
5620;SDS011;2832;50.864;12.186;2023-12-04T08:09:45;1.00;;;1.00;;
5620;SDS011;2832;50.864;12.186;2023-12-04T08:12:17;1.00;;;1.00;;
5620;SDS011;2832;50.864;12.186;2023-12-04T08:14:46;1.00;;;1.00;;
5620;SDS011;2832;50.864;12.186;2023-12-04T08:17:18;1.10;;;1.10;;
5620;SDS011;2832;50.864;12.186;2023-12-04T08:19:49;1.00;;;1.00;;
5620;SDS011;2832;50.864;12.186;2023-12-04T08:22:20;1.10;;;1.10;;
5620;SDS011;2832;50.864;12.186;2023-12-04T08:24:52;1.00;;;1.00;;
5620;SDS011;2832;50.864;12.186;2023-12-04T08:27:19;1.10;;;1.10;;
5620;SDS011;2832;50.864;12.186;2023-12-04T08:29:47;1.00;;;1.00;;
5620;SDS011;2832;50.864;12.186;2023-12-04T08:32:17;1.10;;;1.10;;
5620;SDS011;2832;50.864;12.186;2023-12-04T08:34:47;1.00;;;1.00;;
5620;SDS011;2832;50.864;12.186;2023-12-04T08:37:18;1.00;;;1.00;;
5620;SDS011;2832;50.864;12.186;2023-12-04T08:39:48;1.00;;;1.00;;
5620;SDS011;2832;50.864;12.186;2023-12-04T08:42:21;1.00;;;1.00;;
5620;SDS011;2832;50.864;12.186;2023-12-04T08:44:51;1.00;;;1.00;;
5620;SDS011;2832;50.864;12.186;2023-12-04T08:47:20;1.10;;;1.10;;
5620;SDS011;2832;50.864;12.186;2023-12-04T08:49:48;1.00;;;1.00;;
5620;SDS011;2832;50.864;12.186;2023-12-04T08:52:16;1.10;;;1.10;;
5620;SDS011;2832;50.864;12.186;2023-12-04T08:54:43;1.07;;;1.07;;
5620;SDS011;2832;50.864;12.186;2023-12-04T08:57:12;1.10;;;1.10;;
5620;SDS011;2832;50.864;12.186;2023-12-04T08:59:42;1.00;;;1.00;;
5620;SDS011;2832;50.864;12.186;2023-12-04T09:02:09;1.10;;;1.10;;
5620;SDS011;2832;50.864;12.186;2023-12-04T09:04:37;1.10;;;1.10;;
5620;SDS011;2832;50.864;12.186;2023-12-04T09:07:08;1.07;;;1.07;;
5620;SDS011;2832;50.864;12.186;2023-12-04T09:09:39;1.10;;;1.10;;
5620;SDS011;2832;50.864;12.186;2023-12-04T09:12:07;1.00;;;1.00;;
5620;SDS011;2832;50.864;12.186;2023-12-04T09:14:37;1.10;;;1.10;;
5620;SDS011;2832;50.864;12.186;2023-12-04T09:17:07;1.00;;;1.00;;
5620;SDS011;2832;50.864;12.186;2023-12-04T09:19:36;1.10;;;1.10;;
5620;SDS011;2832;50.864;12.186;2023-12-04T09:22:03;1.10;;;1.10;;
5620;SDS011;2832;50.864;12.186;2023-12-04T09:24:32;1.10;;;1.10;;
5620;SDS011;2832;50.864;12.186;2023-12-04T09:27:03;1.10;;;1.10;;
5620;SDS011;2832;50.864;12.186;2023-12-04T09:29:32;1.00;;;1.00;;
5620;SDS011;2832;50.864;12.186;2023-12-04T09:32:00;1.10;;;1.10;;
5620;SDS011;2832;50.864;12.186;2023-12-04T09:34:30;1.00;;;1.00;;
5620;SDS011;2832;50.864;12.186;2023-12-04T09:37:00;1.10;;;1.10;;
5620;SDS011;2832;50.864;12.186;2023-12-04T09:39:28;1.10;;;1.10;;
5620;SDS011;2832;50.864;12.186;2023-12-04T09:41:57;1.10;;;1.10;;
5620;SDS011;2832;50.864;12.186;2023-12-04T09:44:26;1.00;;;1.00;;
5620;SDS011;2832;50.864;12.186;2023-12-04T09:46:55;1.00;;;1.00;;
5620;SDS011;2832;50.864;12.186;2023-12-04T09:52:38;1.10;;;1.10;;
5620;SDS011;2832;50.864;12.186;2023-12-04T09:55:11;1.10;;;1.10;;
5620;SDS011;2832;50.864;12.186;2023-12-04T09:57:39;1.10;;;1.10;;
5620;SDS011;2832;50.864;12.186;2023-12-04T10:00:07;1.10;;;1.10;;
5620;SDS011;2832;50.864;12.186;2023-12-04T10:02:38;1.10;;;1.10;;
5620;SDS011;2832;50.864;12.186;2023-12-04T10:05:10;1.10;;;1.10;;
5620;SDS011;2832;50.864;12.186;2023-12-04T10:07:41;1.10;;;1.10;;
5620;SDS011;2832;50.864;12.186;2023-12-04T10:10:08;1.10;;;1.10;;
5620;SDS011;2832;50.864;12.186;2023-12-04T10:12:37;1.13;;;1.13;;
5620;SDS011;2832;50.864;12.186;2023-12-04T10:15:10;1.10;;;1.10;;
5620;SDS011;2832;50.864;12.186;2023-12-04T10:17:43;1.00;;;1.00;;
5620;SDS011;2832;50.864;12.186;2023-12-04T10:20:15;1.03;;;1.03;;
5620;SDS011;2832;50.864;12.186;2023-12-04T10:22:52;1.00;;;1.00;;
5620;SDS011;2832;50.864;12.186;2023-12-04T10:25:26;1.10;;;1.10;;
5620;SDS011;2832;50.864;12.186;2023-12-04T10:28:12;1.10;;;1.10;;
5620;SDS011;2832;50.864;12.186;2023-12-04T10:30:41;1.10;;;1.10;;
5620;SDS011;2832;50.864;12.186;2023-12-04T10:33:10;1.10;;;1.10;;
5620;SDS011;2832;50.864;12.186;2023-12-04T10:35:41;1.10;;;1.10;;
5620;SDS011;2832;50.864;12.186;2023-12-04T10:38:09;1.10;;;1.10;;
5620;SDS011;2832;50.864;12.186;2023-12-04T10:40:40;1.10;;;1.10;;
5620;SDS011;2832;50.864;12.186;2023-12-04T10:43:10;1.07;;;1.07;;
5620;SDS011;2832;50.864;12.186;2023-12-04T10:45:41;1.00;;;1.00;;
5620;SDS011;2832;50.864;12.186;2023-12-04T10:48:16;1.10;;;1.10;;
5620;SDS011;2832;50.864;12.186;2023-12-04T10:50:46;1.10;;;1.10;;
5620;SDS011;2832;50.864;12.186;2023-12-04T10:53:38;1.10;;;1.10;;
5620;SDS011;2832;50.864;12.186;2023-12-04T10:56:08;1.00;;;1.00;;
5620;SDS011;2832;50.864;12.186;2023-12-04T10:58:37;1.00;;;1.00;;
5620;SDS011;2832;50.864;12.186;2023-12-04T11:01:08;1.10;;;1.10;;
5620;SDS011;2832;50.864;12.186;2023-12-04T11:03:40;1.00;;;1.00;;
5620;SDS011;2832;50.864;12.186;2023-12-04T11:06:16;1.00;;;1.00;;
5620;SDS011;2832;50.864;12.186;2023-12-04T11:08:48;1.00;;;1.00;;
5620;SDS011;2832;50.864;12.186;2023-12-04T11:11:38;0.30;;;0.30;;
5620;SDS011;2832;50.864;12.186;2023-12-04T11:14:44;0.20;;;0.20;;
5620;SDS011;2832;50.864;12.186;2023-12-04T11:17:17;0.37;;;0.37;;
5620;SDS011;2832;50.864;12.186;2023-12-04T11:19:50;0.30;;;0.30;;
5620;SDS011;2832;50.864;12.186;2023-12-04T11:22:26;0.23;;;0.23;;
5620;SDS011;2832;50.864;12.186;2023-12-04T11:25:20;0.20;;;0.20;;
5620;SDS011;2832;50.864;12.186;2023-12-04T11:27:57;0.30;;;0.30;;
5620;SDS011;2832;50.864;12.186;2023-12-04T11:30:30;0.40;;;0.40;;
5620;SDS011;2832;50.864;12.186;2023-12-04T11:32:59;0.30;;;0.30;;
5620;SDS011;2832;50.864;12.186;2023-12-04T11:35:33;0.30;;;0.30;;
5620;SDS011;2832;50.864;12.186;2023-12-04T11:38:04;0.20;;;0.20;;
5620;SDS011;2832;50.864;12.186;2023-12-04T11:40:34;0.33;;;0.33;;
5620;SDS011;2832;50.864;12.186;2023-12-04T11:45:51;0.30;;;0.30;;
5620;SDS011;2832;50.864;12.186;2023-12-04T11:48:22;0.30;;;0.30;;
5620;SDS011;2832;50.864;12.186;2023-12-04T11:50:56;0.30;;;0.30;;
5620;SDS011;2832;50.864;12.186;2023-12-04T11:53:28;0.30;;;0.30;;
5620;SDS011;2832;50.864;12.186;2023-12-04T11:55:59;0.30;;;0.30;;
5620;SDS011;2832;50.864;12.186;2023-12-04T11:58:42;0.30;;;0.30;;
5620;SDS011;2832;50.864;12.186;2023-12-04T12:01:10;0.20;;;0.20;;
5620;SDS011;2832;50.864;12.186;2023-12-04T12:03:40;0.30;;;0.30;;
5620;SDS011;2832;50.864;12.186;2023-12-04T12:06:12;0.40;;;0.40;;
5620;SDS011;2832;50.864;12.186;2023-12-04T12:08:43;0.30;;;0.30;;
5620;SDS011;2832;50.864;12.186;2023-12-04T12:11:18;0.30;;;0.30;;
5620;SDS011;2832;50.864;12.186;2023-12-04T12:13:46;0.30;;;0.30;;
5620;SDS011;2832;50.864;12.186;2023-12-04T12:16:14;0.30;;;0.30;;
5620;SDS011;2832;50.864;12.186;2023-12-04T12:18:44;0.30;;;0.30;;
5620;SDS011;2832;50.864;12.186;2023-12-04T12:21:11;0.40;;;0.40;;
5620;SDS011;2832;50.864;12.186;2023-12-04T12:23:40;0.30;;;0.30;;
5620;SDS011;2832;50.864;12.186;2023-12-04T12:26:11;0.30;;;0.30;;
5620;SDS011;2832;50.864;12.186;2023-12-04T12:28:38;0.23;;;0.23;;
5620;SDS011;2832;50.864;12.186;2023-12-04T12:31:07;0.20;;;0.20;;
5620;SDS011;2832;50.864;12.186;2023-12-04T12:33:36;0.30;;;0.30;;
5620;SDS011;2832;50.864;12.186;2023-12-04T12:36:19;0.30;;;0.30;;
5620;SDS011;2832;50.864;12.186;2023-12-04T12:38:48;0.30;;;0.30;;
5620;SDS011;2832;50.864;12.186;2023-12-04T12:41:16;0.23;;;0.23;;
5620;SDS011;2832;50.864;12.186;2023-12-04T12:43:44;0.27;;;0.27;;
5620;SDS011;2832;50.864;12.186;2023-12-04T12:46:17;0.30;;;0.30;;
5620;SDS011;2832;50.864;12.186;2023-12-04T12:48:54;0.30;;;0.30;;
5620;SDS011;2832;50.864;12.186;2023-12-04T12:51:25;0.30;;;0.30;;
5620;SDS011;2832;50.864;12.186;2023-12-04T12:53:58;0.30;;;0.30;;
5620;SDS011;2832;50.864;12.186;2023-12-04T12:56:26;0.30;;;0.30;;
5620;SDS011;2832;50.864;12.186;2023-12-04T12:58:56;0.30;;;0.30;;
5620;SDS011;2832;50.864;12.186;2023-12-04T13:01:30;0.30;;;0.30;;
5620;SDS011;2832;50.864;12.186;2023-12-04T13:04:06;0.30;;;0.30;;
5620;SDS011;2832;50.864;12.186;2023-12-04T13:06:47;0.30;;;0.30;;
5620;SDS011;2832;50.864;12.186;2023-12-04T13:09:18;0.30;;;0.30;;
5620;SDS011;2832;50.864;12.186;2023-12-04T13:11:48;0.30;;;0.30;;
5620;SDS011;2832;50.864;12.186;2023-12-04T13:14:17;0.30;;;0.30;;
5620;SDS011;2832;50.864;12.186;2023-12-04T13:16:46;1.00;;;1.00;;
5620;SDS011;2832;50.864;12.186;2023-12-04T13:19:17;1.10;;;1.10;;
5620;SDS011;2832;50.864;12.186;2023-12-04T13:21:52;1.00;;;1.00;;
5620;SDS011;2832;50.864;12.186;2023-12-04T13:24:22;1.10;;;1.10;;
5620;SDS011;2832;50.864;12.186;2023-12-04T13:26:51;1.10;;;1.10;;
5620;SDS011;2832;50.864;12.186;2023-12-04T13:29:22;1.10;;;1.10;;
5620;SDS011;2832;50.864;12.186;2023-12-04T13:31:50;1.10;;;1.10;;
5620;SDS011;2832;50.864;12.186;2023-12-04T13:34:19;1.10;;;1.10;;
5620;SDS011;2832;50.864;12.186;2023-12-04T13:36:49;1.10;;;1.10;;
5620;SDS011;2832;50.864;12.186;2023-12-04T13:39:21;1.10;;;1.10;;
5620;SDS011;2832;50.864;12.186;2023-12-04T13:41:53;1.17;;;1.17;;
5620;SDS011;2832;50.864;12.186;2023-12-04T13:44:38;1.10;;;1.10;;
5620;SDS011;2832;50.864;12.186;2023-12-04T13:47:10;1.10;;;1.10;;
5620;SDS011;2832;50.864;12.186;2023-12-04T13:49:40;1.10;;;1.10;;
5620;SDS011;2832;50.864;12.186;2023-12-04T13:52:17;1.10;;;1.10;;
5620;SDS011;2832;50.864;12.186;2023-12-04T13:54:50;1.00;;;1.00;;
5620;SDS011;2832;50.864;12.186;2023-12-04T13:57:20;1.10;;;1.10;;
5620;SDS011;2832;50.864;12.186;2023-12-04T13:59:53;1.10;;;1.10;;
5620;SDS011;2832;50.864;12.186;2023-12-04T14:02:24;1.10;;;1.10;;
5620;SDS011;2832;50.864;12.186;2023-12-04T14:04:55;1.10;;;1.10;;
5620;SDS011;2832;50.864;12.186;2023-12-04T14:07:25;1.10;;;1.10;;
5620;SDS011;2832;50.864;12.186;2023-12-04T14:09:57;1.10;;;1.10;;
5620;SDS011;2832;50.864;12.186;2023-12-04T14:12:27;1.10;;;1.10;;
5620;SDS011;2832;50.864;12.186;2023-12-04T14:14:57;1.10;;;1.10;;
5620;SDS011;2832;50.864;12.186;2023-12-04T14:17:29;1.10;;;1.10;;
5620;SDS011;2832;50.864;12.186;2023-12-04T14:20:06;1.10;;;1.10;;
5620;SDS011;2832;50.864;12.186;2023-12-04T14:22:56;1.10;;;1.10;;
5620;SDS011;2832;50.864;12.186;2023-12-04T14:25:34;1.10;;;1.10;;
5620;SDS011;2832;50.864;12.186;2023-12-04T14:28:04;1.00;;;1.00;;
5620;SDS011;2832;50.864;12.186;2023-12-04T14:30:35;1.10;;;1.10;;
5620;SDS011;2832;50.864;12.186;2023-12-04T14:33:06;1.00;;;1.00;;
5620;SDS011;2832;50.864;12.186;2023-12-04T14:35:35;1.10;;;1.10;;
5620;SDS011;2832;50.864;12.186;2023-12-04T14:38:04;1.17;;;1.17;;
5620;SDS011;2832;50.864;12.186;2023-12-04T14:40:32;1.10;;;1.10;;
5620;SDS011;2832;50.864;12.186;2023-12-04T14:43:02;1.10;;;1.10;;
5620;SDS011;2832;50.864;12.186;2023-12-04T14:45:30;1.10;;;1.10;;
5620;SDS011;2832;50.864;12.186;2023-12-04T14:47:59;1.10;;;1.10;;
5620;SDS011;2832;50.864;12.186;2023-12-04T14:50:27;1.10;;;1.10;;
5620;SDS011;2832;50.864;12.186;2023-12-04T14:52:56;1.10;;;1.10;;
5620;SDS011;2832;50.864;12.186;2023-12-04T14:55:35;1.00;;;1.00;;
5620;SDS011;2832;50.864;12.186;2023-12-04T14:58:38;1.10;;;1.10;;
5620;SDS011;2832;50.864;12.186;2023-12-04T15:01:21;1.00;;;1.00;;
5620;SDS011;2832;50.864;12.186;2023-12-04T15:04:27;1.10;;;1.10;;
5620;SDS011;2832;50.864;12.186;2023-12-04T15:07:13;1.20;;;1.20;;
5620;SDS011;2832;50.864;12.186;2023-12-04T15:10:37;1.10;;;1.10;;
5620;SDS011;2832;50.864;12.186;2023-12-04T15:13:26;1.10;;;1.10;;
5620;SDS011;2832;50.864;12.186;2023-12-04T15:16:11;1.07;;;1.07;;
5620;SDS011;2832;50.864;12.186;2023-12-04T15:19:02;1.00;;;1.00;;
5620;SDS011;2832;50.864;12.186;2023-12-04T15:21:53;1.00;;;1.00;;
5620;SDS011;2832;50.864;12.186;2023-12-04T15:24:23;1.10;;;1.10;;
5620;SDS011;2832;50.864;12.186;2023-12-04T15:26:54;1.10;;;1.10;;
5620;SDS011;2832;50.864;12.186;2023-12-04T15:29:20;1.10;;;1.10;;